createdAt,value
2024-01-12T00:01:20.364Z,94.20
2024-01-12T00:03:47.921Z,94.63
2024-01-12T00:06:15.473Z,94.73
2024-01-12T00:08:43.063Z,95.18
2024-01-12T00:11:10.756Z,96.18
2024-01-12T00:13:39.444Z,95.65
2024-01-12T00:16:07.887Z,94.93
2024-01-12T00:18:35.895Z,95.32
2024-01-12T00:21:03.676Z,97.28
2024-01-12T00:23:31.306Z,98.11
2024-01-12T00:26:00.983Z,98.57
2024-01-12T00:28:28.866Z,98.68
2024-01-12T00:30:56.468Z,98.34
2024-01-12T00:33:24.187Z,99.12
2024-01-12T00:35:51.942Z,99.75
2024-01-12T00:38:19.449Z,99.98
2024-01-12T00:40:46.981Z,100.00
2024-01-12T00:43:14.439Z,100.00
2024-01-12T00:45:41.897Z,100.00
2024-01-12T00:48:09.750Z,100.00
2024-01-12T00:50:37.400Z,100.00
2024-01-12T00:53:05.091Z,100.00
2024-01-12T00:55:32.968Z,100.00
2024-01-12T00:58:00.418Z,100.00
2024-01-12T01:00:27.984Z,100.00
2024-01-12T01:02:55.560Z,100.00
2024-01-12T01:05:23.112Z,100.00
2024-01-12T01:07:50.668Z,100.00
2024-01-12T01:10:18.145Z,100.00
2024-01-12T01:12:45.698Z,100.00
2024-01-12T01:15:14.985Z,100.00
2024-01-12T01:17:44.515Z,100.00
2024-01-12T01:20:12.829Z,100.00
2024-01-12T01:22:40.432Z,100.00
2024-01-12T01:25:08.154Z,100.00
2024-01-12T01:27:36.069Z,100.00
2024-01-12T01:30:04.048Z,100.00
2024-01-12T01:32:31.744Z,100.00
2024-01-12T01:34:59.310Z,100.00
2024-01-12T01:37:26.828Z,100.00
2024-01-12T01:39:54.289Z,100.00
2024-01-12T01:42:21.661Z,100.00
2024-01-12T01:44:49.143Z,100.00
2024-01-12T01:47:17.440Z,100.00
2024-01-12T01:49:45.211Z,100.00
2024-01-12T01:52:12.906Z,100.00
2024-01-12T01:54:40.374Z,100.00
2024-01-12T01:57:10.122Z,100.00
2024-01-12T01:59:37.891Z,100.00
2024-01-12T02:02:05.759Z,100.00
2024-01-12T02:04:33.386Z,100.00
2024-01-12T02:07:00.945Z,100.00
2024-01-12T02:09:30.090Z,100.00
2024-01-12T02:11:57.639Z,100.00
2024-01-12T02:14:25.780Z,100.00
2024-01-12T02:16:57.533Z,100.00
2024-01-12T02:19:25.029Z,100.00
2024-01-12T02:21:52.569Z,100.00
2024-01-12T02:24:20.018Z,100.00
2024-01-12T02:26:47.492Z,100.00
2024-01-12T02:29:15.002Z,100.00
2024-01-12T02:31:42.604Z,100.00
2024-01-12T02:34:10.209Z,100.00
2024-01-12T02:36:37.848Z,100.00
2024-01-12T02:39:05.447Z,100.00
2024-01-12T02:41:32.971Z,100.00
2024-01-12T02:44:00.637Z,100.00
2024-01-12T02:46:28.141Z,100.00
2024-01-12T02:48:55.746Z,100.00
2024-01-12T02:51:23.505Z,100.00
2024-01-12T02:53:51.099Z,100.00
2024-01-12T02:56:18.759Z,100.00
2024-01-12T02:58:46.300Z,100.00
2024-01-12T03:01:13.901Z,100.00
2024-01-12T03:03:41.561Z,100.00
2024-01-12T03:06:09.291Z,100.00
2024-01-12T03:08:36.905Z,100.00
2024-01-12T03:11:05.110Z,100.00
2024-01-12T03:13:34.516Z,100.00
2024-01-12T03:16:02.083Z,100.00
2024-01-12T03:18:30.274Z,100.00
2024-01-12T03:20:59.397Z,100.00
2024-01-12T03:23:27.075Z,100.00
2024-01-12T03:25:54.812Z,100.00
2024-01-12T03:28:22.252Z,100.00
2024-01-12T03:30:49.968Z,100.00
2024-01-12T03:33:17.766Z,100.00
2024-01-12T03:35:45.380Z,100.00
2024-01-12T03:38:14.137Z,100.00
2024-01-12T03:40:41.744Z,100.00
2024-01-12T03:43:09.244Z,100.00
2024-01-12T03:45:36.913Z,100.00
2024-01-12T03:48:05.038Z,100.00
2024-01-12T03:50:32.698Z,100.00
2024-01-12T03:53:00.427Z,100.00
2024-01-12T03:55:28.289Z,100.00
2024-01-12T03:57:56.266Z,100.00
2024-01-12T04:00:23.817Z,100.00
2024-01-12T04:02:51.333Z,100.00
2024-01-12T04:05:19.292Z,100.00
2024-01-12T04:07:46.909Z,100.00
2024-01-12T04:10:14.365Z,100.00
2024-01-12T04:12:41.768Z,100.00
2024-01-12T04:15:10.539Z,100.00
2024-01-12T04:17:38.814Z,100.00
2024-01-12T04:20:07.146Z,100.00
2024-01-12T04:22:34.736Z,100.00
2024-01-12T04:25:03.004Z,100.00
2024-01-12T04:27:31.007Z,100.00
2024-01-12T04:29:58.573Z,100.00
2024-01-12T04:32:27.955Z,100.00
2024-01-12T04:34:55.766Z,100.00
2024-01-12T04:37:23.272Z,100.00
2024-01-12T04:39:50.976Z,100.00
2024-01-12T04:42:19.745Z,100.00
2024-01-12T04:44:47.308Z,100.00
2024-01-12T04:47:14.955Z,100.00
2024-01-12T04:49:42.721Z,100.00
2024-01-12T04:52:10.397Z,100.00
2024-01-12T04:54:37.948Z,100.00
2024-01-12T04:57:05.696Z,100.00
2024-01-12T04:59:33.532Z,100.00
2024-01-12T05:02:01.041Z,100.00
2024-01-12T05:04:29.033Z,100.00
2024-01-12T05:06:56.668Z,100.00
2024-01-12T05:09:24.340Z,100.00
2024-01-12T05:11:51.850Z,100.00
2024-01-12T05:14:19.394Z,100.00
2024-01-12T05:16:47.024Z,100.00
2024-01-12T05:19:14.626Z,100.00
2024-01-12T05:21:42.159Z,100.00
2024-01-12T05:24:09.733Z,100.00
2024-01-12T05:26:38.155Z,100.00
2024-01-12T05:29:06.057Z,100.00
2024-01-12T05:31:33.822Z,100.00
2024-01-12T05:34:01.491Z,100.00
2024-01-12T05:36:29.028Z,100.00
2024-01-12T05:38:56.639Z,100.00
2024-01-12T05:41:24.431Z,100.00
2024-01-12T05:43:52.046Z,100.00
2024-01-12T05:46:20.636Z,100.00
2024-01-12T05:48:48.357Z,100.00
2024-01-12T05:51:16.386Z,100.00
2024-01-12T05:53:45.391Z,100.00
2024-01-12T05:56:13.743Z,100.00
2024-01-12T05:58:41.211Z,100.00
2024-01-12T06:01:10.132Z,100.00
2024-01-12T06:03:37.778Z,100.00
2024-01-12T06:06:05.732Z,100.00
2024-01-12T06:08:33.408Z,100.00
2024-01-12T06:11:01.695Z,100.00
2024-01-12T06:13:29.223Z,100.00
2024-01-12T06:15:57.715Z,100.00
2024-01-12T06:18:26.050Z,100.00
2024-01-12T06:20:54.015Z,100.00
2024-01-12T06:23:21.770Z,100.00
2024-01-12T06:25:49.494Z,100.00
2024-01-12T06:28:16.874Z,100.00
2024-01-12T06:30:44.491Z,100.00
2024-01-12T06:33:15.719Z,100.00
2024-01-12T06:35:43.589Z,100.00
2024-01-12T06:38:11.722Z,100.00
2024-01-12T06:40:39.910Z,100.00
2024-01-12T06:43:07.338Z,100.00
2024-01-12T06:45:34.798Z,100.00
2024-01-12T06:48:02.460Z,100.00
2024-01-12T06:50:30.631Z,100.00
2024-01-12T06:52:58.402Z,100.00
2024-01-12T06:55:25.974Z,100.00
2024-01-12T06:57:53.530Z,100.00
2024-01-12T07:00:21.518Z,100.00
2024-01-12T07:02:49.095Z,100.00
2024-01-12T07:05:16.708Z,100.00
2024-01-12T07:07:44.700Z,100.00
2024-01-12T07:10:15.161Z,100.00
2024-01-12T07:12:42.781Z,100.00
2024-01-12T07:15:10.752Z,100.00
2024-01-12T07:17:38.320Z,100.00
2024-01-12T07:20:06.894Z,100.00
2024-01-12T07:22:34.365Z,100.00
2024-01-12T07:25:02.026Z,100.00
2024-01-12T07:27:29.485Z,100.00
2024-01-12T07:29:57.084Z,100.00
2024-01-12T07:32:25.195Z,100.00
2024-01-12T07:34:52.990Z,100.00
2024-01-12T07:37:21.224Z,100.00
2024-01-12T07:39:48.928Z,100.00
2024-01-12T07:42:16.488Z,100.00
2024-01-12T07:44:44.055Z,100.00
2024-01-12T07:47:11.825Z,100.00
2024-01-12T07:49:39.601Z,100.00
2024-01-12T07:52:07.444Z,100.00
2024-01-12T07:54:34.914Z,100.00
2024-01-12T07:57:02.534Z,100.00
2024-01-12T07:59:30.167Z,100.00
2024-01-12T08:01:57.806Z,100.00
2024-01-12T08:04:25.508Z,100.00
2024-01-12T08:06:53.342Z,100.00
2024-01-12T08:09:21.094Z,100.00
2024-01-12T08:11:48.739Z,100.00
2024-01-12T08:14:17.279Z,100.00
2024-01-12T08:16:44.910Z,100.00
2024-01-12T08:19:12.300Z,100.00
2024-01-12T08:21:45.732Z,100.00
2024-01-12T08:24:19.979Z,100.00
2024-01-12T08:26:47.652Z,100.00
2024-01-12T08:29:15.470Z,100.00
2024-01-12T08:31:43.668Z,100.00
2024-01-12T08:34:11.467Z,100.00
2024-01-12T08:36:39.240Z,100.00
2024-01-12T08:39:06.893Z,100.00
2024-01-12T08:41:34.425Z,100.00
2024-01-12T08:44:02.037Z,100.00
2024-01-12T08:46:29.674Z,100.00
2024-01-12T08:48:57.685Z,100.00
2024-01-12T08:51:25.807Z,100.00
2024-01-12T08:53:53.303Z,100.00
2024-01-12T08:56:20.876Z,100.00
2024-01-12T08:58:48.415Z,100.00
2024-01-12T09:01:16.106Z,99.21
2024-01-12T09:03:44.077Z,95.89
2024-01-12T09:06:12.394Z,96.50
2024-01-12T09:08:40.136Z,94.28
2024-01-12T09:11:07.626Z,94.19
2024-01-12T09:13:35.405Z,92.90
2024-01-12T09:16:02.850Z,89.59
2024-01-12T09:18:30.518Z,89.23
2024-01-12T09:20:58.129Z,90.51
2024-01-12T09:23:25.799Z,91.15
2024-01-12T09:25:55.738Z,91.07
2024-01-12T09:28:23.741Z,90.19
2024-01-12T09:30:51.456Z,89.12
2024-01-12T09:33:19.270Z,87.11
2024-01-12T09:35:47.191Z,84.45
2024-01-12T09:38:14.705Z,82.75
2024-01-12T09:40:42.268Z,80.35
2024-01-12T09:43:11.530Z,78.42
2024-01-12T09:45:39.033Z,75.43
2024-01-12T09:48:06.687Z,73.81
2024-01-12T09:50:34.300Z,73.08
2024-01-12T09:53:02.335Z,73.60
2024-01-12T09:55:29.933Z,73.60
2024-01-12T09:57:57.448Z,70.55
2024-01-12T10:00:27.458Z,70.28
2024-01-12T10:02:57.110Z,69.63
2024-01-12T10:05:24.763Z,69.60
2024-01-12T10:07:52.416Z,69.16
2024-01-12T10:10:19.867Z,68.05
2024-01-12T10:12:50.722Z,65.42
2024-01-12T10:15:19.405Z,63.96
2024-01-12T10:17:47.064Z,63.90
2024-01-12T10:20:14.825Z,63.00
2024-01-12T10:22:42.487Z,62.59
2024-01-12T10:25:10.049Z,62.38
2024-01-12T10:27:37.503Z,60.47
2024-01-12T10:30:05.937Z,59.41
2024-01-12T10:32:33.651Z,60.18
2024-01-12T10:35:01.391Z,59.49
2024-01-12T10:37:28.883Z,58.27
2024-01-12T10:39:56.436Z,57.53
2024-01-12T10:42:25.022Z,57.88
2024-01-12T10:44:53.182Z,58.20
2024-01-12T10:47:23.953Z,59.07
2024-01-12T10:49:54.852Z,58.70
2024-01-12T10:52:27.655Z,59.15
2024-01-12T10:54:58.924Z,60.22
2024-01-12T10:57:26.586Z,62.84
2024-01-12T10:59:54.108Z,63.56
2024-01-12T11:02:21.833Z,62.90
2024-01-12T11:04:49.457Z,60.71
2024-01-12T11:07:17.319Z,61.89
2024-01-12T11:09:45.091Z,61.36
2024-01-12T11:12:13.773Z,60.72
2024-01-12T11:14:41.401Z,61.57
2024-01-12T11:17:09.101Z,62.07
2024-01-12T11:19:36.867Z,62.51
2024-01-12T11:22:06.690Z,63.62
2024-01-12T11:24:35.077Z,63.40
2024-01-12T11:27:04.337Z,63.13
2024-01-12T11:29:33.408Z,61.95
2024-01-12T11:32:01.452Z,59.71
2024-01-12T11:34:33.371Z,60.10
2024-01-12T11:37:01.287Z,62.03
2024-01-12T11:39:35.542Z,61.31
2024-01-12T11:42:09.663Z,59.30
2024-01-12T11:44:37.948Z,58.91
2024-01-12T11:47:06.466Z,60.61
2024-01-12T11:49:34.037Z,62.02
2024-01-12T11:52:03.339Z,61.20
2024-01-12T11:54:30.790Z,61.07
2024-01-12T11:56:58.547Z,60.12
2024-01-12T11:59:26.158Z,59.54
2024-01-12T12:01:53.777Z,61.87
2024-01-12T12:04:21.390Z,61.92
2024-01-12T12:06:49.390Z,62.96
2024-01-12T12:09:17.076Z,62.73
2024-01-12T12:11:44.716Z,62.07
2024-01-12T12:14:12.420Z,62.49
2024-01-12T12:16:40.080Z,61.33
2024-01-12T12:19:07.679Z,60.83
2024-01-12T12:21:36.625Z,61.64
2024-01-12T12:24:04.440Z,62.32
2024-01-12T12:26:33.261Z,62.36
2024-01-12T12:29:00.944Z,62.29
2024-01-12T12:31:29.329Z,63.34
2024-01-12T12:33:57.100Z,64.01
2024-01-12T12:36:24.797Z,63.29
2024-01-12T12:38:52.444Z,63.06
2024-01-12T12:41:19.907Z,63.27
2024-01-12T12:43:48.474Z,62.92
2024-01-12T12:46:16.026Z,62.31
2024-01-12T12:48:43.884Z,62.76
2024-01-12T12:51:12.359Z,61.92
2024-01-12T12:53:39.879Z,62.19
2024-01-12T12:56:07.401Z,62.17
2024-01-12T12:58:34.970Z,62.45
2024-01-12T13:01:02.580Z,61.97
2024-01-12T13:03:30.332Z,61.00
2024-01-12T13:05:57.931Z,61.32
2024-01-12T13:08:25.585Z,62.87
2024-01-12T13:10:54.132Z,64.38
2024-01-12T13:13:22.390Z,64.29
2024-01-12T13:15:50.555Z,64.32
2024-01-12T13:18:18.411Z,65.60
2024-01-12T13:20:47.718Z,66.08
2024-01-12T13:23:15.384Z,67.34
2024-01-12T13:25:42.941Z,68.86
2024-01-12T13:28:10.498Z,69.60
2024-01-12T13:30:38.105Z,69.34
2024-01-12T13:33:05.931Z,69.20
2024-01-12T13:35:33.958Z,68.94
2024-01-12T13:38:01.576Z,68.83
2024-01-12T13:40:29.130Z,68.05
2024-01-12T13:42:56.713Z,68.62
2024-01-12T13:45:24.358Z,68.94
2024-01-12T13:47:52.091Z,69.76
2024-01-12T13:50:21.176Z,70.21
2024-01-12T13:52:48.784Z,71.44
2024-01-12T13:55:16.341Z,72.35
2024-01-12T13:57:43.993Z,73.44
2024-01-12T14:00:15.305Z,75.54
2024-01-12T14:02:43.157Z,76.94
2024-01-12T14:05:17.530Z,79.30
2024-01-12T14:07:46.101Z,80.41
2024-01-12T14:10:13.891Z,82.29
2024-01-12T14:12:41.353Z,83.28
2024-01-12T14:15:09.542Z,85.44
2024-01-12T14:17:37.300Z,86.98
2024-01-12T14:20:05.525Z,88.80
2024-01-12T14:22:33.340Z,89.87
2024-01-12T14:25:00.899Z,91.69
2024-01-12T14:27:28.458Z,92.64
2024-01-12T14:29:56.732Z,93.28
2024-01-12T14:32:24.544Z,93.63
2024-01-12T14:34:52.866Z,95.01
2024-01-12T14:37:20.272Z,95.58
2024-01-12T14:39:47.904Z,95.89
2024-01-12T14:42:17.410Z,98.08
2024-01-12T14:44:45.054Z,99.72
2024-01-12T14:47:14.903Z,100.00
2024-01-12T14:49:42.804Z,100.00
2024-01-12T14:52:10.529Z,100.00
2024-01-12T14:54:38.051Z,100.00
2024-01-12T14:57:05.664Z,100.00
2024-01-12T14:59:33.349Z,100.00
2024-01-12T15:02:00.908Z,100.00
2024-01-12T15:04:28.469Z,100.00
2024-01-12T15:06:57.334Z,100.00
2024-01-12T15:09:25.222Z,100.00
2024-01-12T15:11:52.863Z,100.00
2024-01-12T15:14:20.845Z,100.00
2024-01-12T15:16:48.639Z,100.00
2024-01-12T15:19:16.472Z,100.00
2024-01-12T15:21:44.135Z,100.00
2024-01-12T15:24:11.658Z,100.00
2024-01-12T15:26:39.167Z,100.00
2024-01-12T15:29:06.820Z,100.00
2024-01-12T15:31:34.423Z,100.00
2024-01-12T15:34:02.284Z,100.00
2024-01-12T15:36:30.033Z,100.00
2024-01-12T15:38:57.651Z,100.00
2024-01-12T15:41:25.428Z,100.00
2024-01-12T15:43:53.031Z,100.00
2024-01-12T15:46:20.577Z,100.00
2024-01-12T15:48:48.381Z,100.00
2024-01-12T15:51:16.633Z,100.00
2024-01-12T15:53:44.312Z,100.00
2024-01-12T15:56:11.941Z,100.00
2024-01-12T15:58:40.215Z,100.00
2024-01-12T16:01:07.779Z,100.00
2024-01-12T16:03:35.357Z,100.00
2024-01-12T16:06:12.010Z,100.00
2024-01-12T16:08:39.718Z,100.00
2024-01-12T16:11:07.234Z,100.00
2024-01-12T16:13:34.796Z,100.00
2024-01-12T16:16:02.185Z,100.00
2024-01-12T16:18:29.749Z,100.00
2024-01-12T16:20:57.409Z,100.00
2024-01-12T16:23:24.959Z,100.00
2024-01-12T16:25:52.400Z,100.00
2024-01-12T16:28:19.794Z,100.00
2024-01-12T16:30:47.177Z,100.00
2024-01-12T16:33:14.835Z,100.00
2024-01-12T16:35:42.626Z,100.00
2024-01-12T16:38:11.035Z,100.00
2024-01-12T16:40:38.612Z,100.00
2024-01-12T16:43:05.999Z,100.00
2024-01-12T16:45:33.436Z,100.00
2024-01-12T16:48:01.207Z,100.00
2024-01-12T16:50:28.911Z,100.00
2024-01-12T16:52:56.650Z,100.00
2024-01-12T16:55:25.837Z,100.00
2024-01-12T16:57:54.691Z,100.00
2024-01-12T17:00:22.904Z,100.00
2024-01-12T17:02:50.386Z,100.00
2024-01-12T17:05:18.030Z,100.00
2024-01-12T17:07:45.504Z,100.00
2024-01-12T17:10:13.011Z,100.00
2024-01-12T17:12:40.571Z,100.00
2024-01-12T17:15:08.588Z,100.00
2024-01-12T17:17:36.351Z,100.00
2024-01-12T17:20:04.291Z,100.00
2024-01-12T17:22:31.882Z,100.00
2024-01-12T17:24:59.345Z,100.00
2024-01-12T17:27:28.372Z,100.00
2024-01-12T17:29:56.643Z,100.00
2024-01-12T17:32:27.831Z,100.00
2024-01-12T17:34:55.722Z,100.00
2024-01-12T17:37:23.686Z,100.00
2024-01-12T17:39:54.081Z,100.00
2024-01-12T17:42:22.792Z,100.00
2024-01-12T17:44:50.377Z,100.00
2024-01-12T17:47:19.459Z,100.00
2024-01-12T17:49:46.970Z,100.00
2024-01-12T17:52:14.663Z,100.00
2024-01-12T17:54:42.048Z,100.00
2024-01-12T17:57:09.634Z,100.00
2024-01-12T17:59:37.365Z,100.00
2024-01-12T18:02:04.936Z,100.00
2024-01-12T18:04:33.000Z,100.00
2024-01-12T18:07:00.603Z,100.00
2024-01-12T18:09:28.128Z,100.00
2024-01-12T18:11:56.018Z,100.00
2024-01-12T18:14:23.744Z,100.00
2024-01-12T18:16:51.239Z,100.00
2024-01-12T18:19:20.338Z,100.00
2024-01-12T18:21:47.964Z,100.00
2024-01-12T18:24:15.669Z,100.00
2024-01-12T18:26:43.266Z,100.00
2024-01-12T18:29:10.661Z,100.00
2024-01-12T18:31:38.208Z,100.00
2024-01-12T18:34:05.907Z,100.00
2024-01-12T18:36:35.142Z,100.00
2024-01-12T18:39:03.026Z,100.00
2024-01-12T18:41:30.615Z,100.00
2024-01-12T18:43:58.251Z,100.00
2024-01-12T18:46:25.658Z,100.00
2024-01-12T18:48:53.659Z,100.00
2024-01-12T18:51:21.350Z,100.00
2024-01-12T18:53:49.164Z,100.00
2024-01-12T18:56:16.982Z,100.00
2024-01-12T18:58:44.641Z,100.00
2024-01-12T19:01:12.228Z,100.00
2024-01-12T19:03:42.342Z,100.00
2024-01-12T19:06:10.199Z,100.00
2024-01-12T19:08:37.896Z,100.00
2024-01-12T19:11:06.463Z,100.00
2024-01-12T19:13:34.115Z,100.00
2024-01-12T19:16:02.181Z,100.00
2024-01-12T19:18:30.081Z,100.00
2024-01-12T19:20:59.400Z,100.00
2024-01-12T19:23:27.117Z,100.00
2024-01-12T19:25:54.749Z,100.00
2024-01-12T19:28:22.249Z,100.00
2024-01-12T19:30:51.090Z,100.00
2024-01-12T19:33:18.854Z,100.00
2024-01-12T19:35:47.324Z,100.00
2024-01-12T19:38:16.927Z,100.00
2024-01-12T19:40:44.564Z,100.00
2024-01-12T19:43:12.081Z,100.00
2024-01-12T19:45:39.682Z,100.00
2024-01-12T19:48:07.415Z,100.00
2024-01-12T19:50:35.072Z,100.00
2024-01-12T19:53:02.725Z,100.00
2024-01-12T19:55:30.244Z,100.00
2024-01-12T19:57:59.125Z,100.00
2024-01-12T20:00:26.722Z,100.00
2024-01-12T20:02:54.904Z,100.00
2024-01-12T20:05:22.673Z,100.00
2024-01-12T20:07:51.051Z,100.00
2024-01-12T20:10:18.887Z,100.00
2024-01-12T20:12:48.290Z,100.00
2024-01-12T20:15:18.947Z,100.00
2024-01-12T20:17:46.649Z,100.00
2024-01-12T20:20:14.533Z,100.00
2024-01-12T20:22:42.315Z,100.00
2024-01-12T20:25:10.292Z,100.00
2024-01-12T20:27:37.969Z,100.00
2024-01-12T20:30:06.372Z,100.00
2024-01-12T20:32:34.329Z,100.00
2024-01-12T20:35:02.204Z,100.00
2024-01-12T20:37:32.391Z,100.00
2024-01-12T20:39:59.868Z,100.00
2024-01-12T20:42:27.317Z,100.00
2024-01-12T20:44:54.980Z,100.00
2024-01-12T20:47:25.977Z,100.00
2024-01-12T20:49:53.686Z,100.00
2024-01-12T20:52:22.970Z,100.00
2024-01-12T20:54:51.990Z,100.00
2024-01-12T20:57:19.547Z,100.00
2024-01-12T20:59:46.967Z,100.00
2024-01-12T21:02:14.514Z,100.00
2024-01-12T21:04:42.130Z,100.00
2024-01-12T21:07:10.612Z,100.00
2024-01-12T21:09:38.167Z,100.00
2024-01-12T21:12:06.201Z,100.00
2024-01-12T21:14:33.987Z,100.00
2024-01-12T21:17:01.578Z,100.00
2024-01-12T21:19:29.276Z,100.00
2024-01-12T21:21:57.019Z,100.00
2024-01-12T21:24:24.566Z,100.00
2024-01-12T21:26:52.214Z,100.00
2024-01-12T21:29:19.799Z,100.00
2024-01-12T21:31:47.419Z,100.00
2024-01-12T21:34:14.955Z,100.00
2024-01-12T21:36:42.593Z,100.00
2024-01-12T21:39:10.495Z,100.00
2024-01-12T21:41:38.259Z,100.00
2024-01-12T21:44:05.769Z,100.00
2024-01-12T21:46:33.536Z,100.00
2024-01-12T21:49:04.386Z,100.00
2024-01-12T21:51:31.944Z,100.00
2024-01-12T21:53:59.544Z,100.00
2024-01-12T21:56:27.728Z,100.00
2024-01-12T21:58:55.226Z,100.00
2024-01-12T22:01:22.800Z,100.00
2024-01-12T22:03:50.262Z,100.00
2024-01-12T22:06:17.870Z,100.00
2024-01-12T22:08:45.391Z,100.00
2024-01-12T22:11:12.855Z,100.00
2024-01-12T22:13:40.393Z,100.00
2024-01-12T22:16:07.851Z,100.00
2024-01-12T22:18:35.471Z,100.00
2024-01-12T22:21:03.214Z,100.00
2024-01-12T22:23:30.919Z,100.00
2024-01-12T22:25:58.607Z,100.00
2024-01-12T22:28:26.177Z,100.00
2024-01-12T22:30:53.671Z,100.00
2024-01-12T22:33:24.376Z,100.00
2024-01-12T22:35:52.816Z,100.00
2024-01-12T22:38:22.358Z,100.00
2024-01-12T22:40:49.917Z,100.00
2024-01-12T22:43:17.406Z,100.00
2024-01-12T22:45:44.831Z,100.00
2024-01-12T22:48:12.587Z,100.00
2024-01-12T22:50:40.530Z,100.00
2024-01-12T22:53:08.538Z,100.00
2024-01-12T22:55:36.101Z,100.00
2024-01-12T22:58:03.559Z,100.00
2024-01-12T23:00:34.300Z,100.00
2024-01-12T23:03:02.116Z,100.00
2024-01-12T23:05:30.136Z,100.00
2024-01-12T23:07:57.700Z,100.00
2024-01-12T23:10:25.160Z,100.00
2024-01-12T23:12:52.629Z,100.00
2024-01-12T23:15:20.281Z,100.00
2024-01-12T23:17:47.927Z,100.00
2024-01-12T23:20:18.251Z,100.00
2024-01-12T23:22:47.884Z,100.00
2024-01-12T23:25:15.340Z,100.00
2024-01-12T23:27:42.800Z,100.00
2024-01-12T23:30:10.889Z,100.00
2024-01-12T23:32:38.813Z,100.00
2024-01-12T23:35:09.925Z,100.00
2024-01-12T23:37:37.666Z,100.00
2024-01-12T23:40:05.521Z,100.00
2024-01-12T23:42:32.978Z,100.00
2024-01-12T23:45:00.514Z,100.00
2024-01-12T23:47:28.145Z,100.00
2024-01-12T23:49:55.814Z,100.00
2024-01-12T23:52:23.329Z,100.00
2024-01-12T23:54:51.511Z,100.00
2024-01-12T23:57:19.160Z,100.00
2024-01-12T23:59:46.736Z,100.00
